createdAt,value
2022-11-29T00:00:40.151Z,26.50
2022-11-29T00:01:42.257Z,25.30
2022-11-29T00:02:44.023Z,25.52
2022-11-29T00:03:45.762Z,29.13
2022-11-29T00:04:47.375Z,36.03
2022-11-29T00:05:49.019Z,27.77
2022-11-29T00:06:50.596Z,29.33
2022-11-29T00:07:52.379Z,26.83
2022-11-29T00:08:59.479Z,27.98
2022-11-29T00:10:01.033Z,24.98
2022-11-29T00:11:14.417Z,32.05
2022-11-29T00:12:16.069Z,30.40
2022-11-29T00:13:17.845Z,30.27
2022-11-29T00:14:20.961Z,26.33
2022-11-29T00:15:22.556Z,29.33
2022-11-29T00:16:24.153Z,30.67
2022-11-29T00:17:25.751Z,35.10
2022-11-29T00:18:27.351Z,29.08
2022-11-29T00:19:29.253Z,27.45
2022-11-29T00:20:31.482Z,31.05
2022-11-29T00:21:40.918Z,26.45
2022-11-29T00:22:42.583Z,26.95
2022-11-29T00:23:44.176Z,27.17
2022-11-29T00:24:46.087Z,31.42
2022-11-29T00:25:47.917Z,26.67
2022-11-29T00:26:49.782Z,25.45
2022-11-29T00:27:51.527Z,38.53
2022-11-29T00:28:53.496Z,28.80
2022-11-29T00:29:55.116Z,25.73
2022-11-29T00:30:56.824Z,33.75
2022-11-29T00:31:59.080Z,29.52
2022-11-29T00:33:00.722Z,29.08
2022-11-29T00:34:04.960Z,28.23
2022-11-29T00:35:09.632Z,25.90
2022-11-29T00:36:11.735Z,30.02
2022-11-29T00:37:13.477Z,29.63
2022-11-29T00:38:15.128Z,28.80
2022-11-29T00:39:16.957Z,32.38
2022-11-29T00:40:18.573Z,26.27
2022-11-29T00:41:20.297Z,31.35
2022-11-29T00:42:21.893Z,28.52
2022-11-29T00:43:23.478Z,30.02
2022-11-29T00:44:25.122Z,30.88
2022-11-29T00:45:26.739Z,30.20
2022-11-29T00:46:28.960Z,27.77
2022-11-29T00:47:30.538Z,29.00
2022-11-29T00:48:32.281Z,29.95
2022-11-29T00:49:33.860Z,28.30
2022-11-29T00:50:35.543Z,28.17
2022-11-29T00:51:39.922Z,34.45
2022-11-29T00:52:41.564Z,29.95
2022-11-29T00:53:43.211Z,36.15
2022-11-29T00:54:45.043Z,30.40
2022-11-29T00:55:58.828Z,29.60
2022-11-29T00:57:00.411Z,26.75
2022-11-29T00:58:02.126Z,30.15
2022-11-29T00:59:03.972Z,30.52
2022-11-29T01:00:06.493Z,29.98
2022-11-29T01:01:08.400Z,32.60
2022-11-29T01:02:10.080Z,29.75
2022-11-29T01:03:11.940Z,28.70
2022-11-29T01:04:13.681Z,28.23
2022-11-29T01:05:15.311Z,30.02
2022-11-29T01:06:18.293Z,32.35
2022-11-29T01:07:20.076Z,30.17
2022-11-29T01:08:21.719Z,29.65
2022-11-29T01:09:23.314Z,33.97
2022-11-29T01:10:25.224Z,28.90
2022-11-29T01:11:27.969Z,31.65
2022-11-29T01:12:29.594Z,35.22
2022-11-29T01:13:31.217Z,29.13
2022-11-29T01:14:32.827Z,26.52
2022-11-29T01:15:34.507Z,38.05
2022-11-29T01:16:36.450Z,28.50
2022-11-29T01:17:39.215Z,32.30
2022-11-29T01:18:42.104Z,25.45
2022-11-29T01:19:47.913Z,29.88
2022-11-29T01:21:01.584Z,28.20
2022-11-29T01:22:03.320Z,27.83
2022-11-29T01:23:04.914Z,29.98
2022-11-29T01:24:06.717Z,25.90
2022-11-29T01:25:11.182Z,30.05
2022-11-29T01:26:18.199Z,24.90
2022-11-29T01:27:19.995Z,26.42
2022-11-29T01:28:21.676Z,20.60
2022-11-29T01:29:23.336Z,28.70
2022-11-29T01:30:25.735Z,28.67
2022-11-29T01:31:33.580Z,31.27
2022-11-29T01:32:36.155Z,28.13
2022-11-29T01:33:38.101Z,26.17
2022-11-29T01:34:39.917Z,25.25
2022-11-29T01:35:54.095Z,28.25
2022-11-29T01:36:55.995Z,23.60
2022-11-29T01:37:57.559Z,25.40
2022-11-29T01:39:00.722Z,26.90
2022-11-29T01:40:02.689Z,29.90
2022-11-29T01:41:08.489Z,29.33
2022-11-29T01:42:14.549Z,31.20
2022-11-29T01:43:18.256Z,26.80
2022-11-29T01:44:19.877Z,30.63
2022-11-29T01:45:25.870Z,28.02
2022-11-29T01:46:33.571Z,27.17
2022-11-29T01:47:42.962Z,26.40
2022-11-29T01:48:44.851Z,25.42
2022-11-29T01:49:49.015Z,22.67
2022-11-29T01:50:52.468Z,28.80
2022-11-29T01:52:07.988Z,27.90
2022-11-29T01:53:14.021Z,23.10
2022-11-29T01:54:15.700Z,29.38
2022-11-29T01:55:18.210Z,24.35
2022-11-29T01:56:21.485Z,23.40
2022-11-29T01:57:23.797Z,23.55
2022-11-29T01:58:25.502Z,25.30
2022-11-29T01:59:29.594Z,25.48
2022-11-29T02:00:31.201Z,22.40
2022-11-29T02:01:34.734Z,24.17
2022-11-29T02:02:41.846Z,25.63
2022-11-29T02:03:43.543Z,27.10
2022-11-29T02:04:46.903Z,26.13
2022-11-29T02:05:51.512Z,26.67
2022-11-29T02:06:53.165Z,29.50
2022-11-29T02:07:58.713Z,25.52
2022-11-29T02:09:00.433Z,28.83
2022-11-29T02:10:03.977Z,22.08
2022-11-29T02:11:26.936Z,30.13
2022-11-29T02:12:50.067Z,29.65
2022-11-29T02:14:12.797Z,19.75
2022-11-29T02:15:36.796Z,26.80
2022-11-29T02:16:45.030Z,30.58
2022-11-29T02:18:04.066Z,27.50
2022-11-29T02:19:23.840Z,30.33
2022-11-29T02:21:03.537Z,25.33
2022-11-29T02:22:33.052Z,24.80
2022-11-29T02:23:56.158Z,23.00
2022-11-29T02:25:17.625Z,23.70
2022-11-29T02:26:58.952Z,23.48
2022-11-29T02:28:41.758Z,24.63
2022-11-29T02:30:09.156Z,23.63
2022-11-29T02:31:29.695Z,25.35
2022-11-29T02:33:00.687Z,26.75
2022-11-29T02:34:21.124Z,25.17
2022-11-29T02:35:38.491Z,23.02
2022-11-29T02:36:51.348Z,23.23
2022-11-29T02:38:08.039Z,24.42
2022-11-29T02:39:24.866Z,23.65
2022-11-29T02:41:00.136Z,25.20
2022-11-29T02:42:29.415Z,25.60
2022-11-29T02:44:06.207Z,25.70
2022-11-29T02:45:13.855Z,21.98
2022-11-29T02:46:27.622Z,24.35
2022-11-29T02:48:07.916Z,25.45
2022-11-29T02:49:44.455Z,25.20
2022-11-29T02:51:06.306Z,22.83
2022-11-29T02:52:15.749Z,23.58
2022-11-29T02:53:42.188Z,25.40
2022-11-29T02:54:47.206Z,23.10
2022-11-29T02:56:05.068Z,22.83
2022-11-29T02:57:26.111Z,26.27
2022-11-29T02:58:48.989Z,24.85
2022-11-29T03:00:20.110Z,24.35
2022-11-29T03:01:29.907Z,21.88
2022-11-29T03:02:58.177Z,21.80
2022-11-29T03:04:11.538Z,20.17
2022-11-29T03:05:51.003Z,25.67
2022-11-29T03:07:02.180Z,23.98
2022-11-29T03:08:36.088Z,24.23
2022-11-29T03:10:20.516Z,29.58
2022-11-29T03:11:40.839Z,26.25
2022-11-29T03:12:48.695Z,22.45
2022-11-29T03:14:25.201Z,23.15
2022-11-29T03:15:39.184Z,25.95
2022-11-29T03:17:21.310Z,23.75
2022-11-29T03:18:34.562Z,24.33
2022-11-29T03:19:51.324Z,30.67
2022-11-29T03:21:03.809Z,23.20
2022-11-29T03:22:24.427Z,24.65
2022-11-29T03:23:34.099Z,31.02
2022-11-29T03:25:01.972Z,29.70
2022-11-29T03:26:31.977Z,28.25
2022-11-29T03:27:54.660Z,24.35
2022-11-29T03:29:06.862Z,26.17
2022-11-29T03:30:11.923Z,26.88
2022-11-29T03:31:27.674Z,22.23
2022-11-29T03:32:33.199Z,25.88
2022-11-29T03:33:43.235Z,22.77
2022-11-29T03:35:06.889Z,29.90
2022-11-29T03:36:45.417Z,31.30
2022-11-29T03:37:57.727Z,31.63
2022-11-29T03:39:05.388Z,25.00
2022-11-29T03:40:14.520Z,24.90
2022-11-29T03:41:21.061Z,24.48
2022-11-29T03:42:46.942Z,24.10
2022-11-29T03:44:03.143Z,24.83
2022-11-29T03:45:10.861Z,25.45
2022-11-29T03:46:22.677Z,21.45
2022-11-29T03:47:33.585Z,29.38
2022-11-29T03:48:45.831Z,24.70
2022-11-29T03:49:58.928Z,26.05
2022-11-29T03:51:11.167Z,27.80
2022-11-29T03:52:24.267Z,30.00
2022-11-29T03:53:52.693Z,24.83
2022-11-29T03:55:03.569Z,24.38
2022-11-29T03:56:22.675Z,27.77
2022-11-29T03:57:33.174Z,29.25
2022-11-29T03:58:57.629Z,25.85
2022-11-29T04:00:10.680Z,26.42
2022-11-29T04:01:20.875Z,23.80
2022-11-29T04:02:40.022Z,25.15
2022-11-29T04:04:15.515Z,29.38
2022-11-29T04:05:25.177Z,27.15
2022-11-29T04:06:38.274Z,24.10
2022-11-29T04:07:39.929Z,31.05
2022-11-29T04:09:23.131Z,24.77
2022-11-29T04:10:30.083Z,22.67
2022-11-29T04:12:07.189Z,23.60
2022-11-29T04:13:15.237Z,24.38
2022-11-29T04:14:55.128Z,23.38
2022-11-29T04:16:06.010Z,25.60
2022-11-29T04:17:25.476Z,24.25
2022-11-29T04:18:45.055Z,23.95
2022-11-29T04:20:10.757Z,25.27
2022-11-29T04:21:33.570Z,24.55
2022-11-29T04:22:49.472Z,21.38
2022-11-29T04:23:54.205Z,22.35
2022-11-29T04:25:09.069Z,24.80
2022-11-29T04:26:33.582Z,21.98
2022-11-29T04:27:59.476Z,21.85
2022-11-29T04:29:11.791Z,21.33
2022-11-29T04:30:18.687Z,21.80
2022-11-29T04:31:33.556Z,22.48
2022-11-29T04:32:50.236Z,25.08
2022-11-29T04:34:25.673Z,25.02
2022-11-29T04:35:42.830Z,20.35
2022-11-29T04:37:18.313Z,20.27
2022-11-29T04:39:09.337Z,23.55
2022-11-29T04:40:36.497Z,19.10
2022-11-29T04:42:02.065Z,21.85
2022-11-29T04:43:34.045Z,23.92
2022-11-29T04:44:50.578Z,22.65
2022-11-29T04:46:18.994Z,24.83
2022-11-29T04:47:41.653Z,21.38
2022-11-29T04:49:07.194Z,28.33
2022-11-29T04:50:36.898Z,22.15
2022-11-29T04:52:04.308Z,22.42
2022-11-29T04:53:28.411Z,22.20
2022-11-29T04:54:39.354Z,27.33
2022-11-29T04:55:54.483Z,26.50
2022-11-29T04:57:25.915Z,23.05
2022-11-29T04:58:30.220Z,23.30
2022-11-29T05:00:15.456Z,24.30
2022-11-29T05:01:54.133Z,24.13
2022-11-29T05:02:58.454Z,27.20
2022-11-29T05:04:30.191Z,34.78
2022-11-29T05:06:01.826Z,32.20
2022-11-29T05:07:14.259Z,32.92
2022-11-29T05:08:53.687Z,29.60
2022-11-29T05:10:22.333Z,31.48
2022-11-29T05:11:26.930Z,33.03
2022-11-29T05:12:31.343Z,26.98
2022-11-29T05:14:08.008Z,29.48
2022-11-29T05:15:41.181Z,35.55
2022-11-29T05:16:48.036Z,24.55
2022-11-29T05:18:21.524Z,34.15
2022-11-29T05:20:03.720Z,33.80
2022-11-29T05:21:39.665Z,31.95
2022-11-29T05:23:07.569Z,33.20
2022-11-29T05:24:30.947Z,29.60
2022-11-29T05:26:15.585Z,27.50
2022-11-29T05:32:54.929Z,31.85
2022-11-29T05:34:35.444Z,31.50
2022-11-29T05:40:23.194Z,31.60
2022-11-29T05:42:09.418Z,29.02
2022-11-29T05:43:30.396Z,31.83
2022-11-29T05:44:41.173Z,30.67
2022-11-29T05:46:01.800Z,28.48
2022-11-29T05:47:11.521Z,27.10
2022-11-29T05:48:29.672Z,27.48
2022-11-29T05:49:53.303Z,35.03
2022-11-29T05:51:21.131Z,32.30
2022-11-29T05:52:30.024Z,33.15
2022-11-29T05:53:51.316Z,36.17
2022-11-29T05:55:14.055Z,30.08
2022-11-29T05:56:29.197Z,43.38
2022-11-29T05:57:37.864Z,35.58
2022-11-29T05:58:58.217Z,35.28
2022-11-29T06:00:03.095Z,33.47
2022-11-29T06:01:25.964Z,37.28
2022-11-29T06:02:27.630Z,39.20
2022-11-29T06:03:59.948Z,38.25
2022-11-29T06:05:17.487Z,36.15
2022-11-29T06:06:31.116Z,37.53
2022-11-29T06:07:44.850Z,36.58
2022-11-29T06:08:58.524Z,32.65
2022-11-29T06:10:05.521Z,38.63
2022-11-29T06:11:36.135Z,35.55
2022-11-29T06:12:38.822Z,33.88
2022-11-29T06:14:02.439Z,40.78
2022-11-29T06:15:17.616Z,34.17
2022-11-29T06:16:34.665Z,28.48
2022-11-29T06:17:55.198Z,36.03
2022-11-29T06:19:21.302Z,34.55
2022-11-29T06:20:37.889Z,30.17
2022-11-29T06:22:16.876Z,34.80
2022-11-29T06:23:50.909Z,35.55
2022-11-29T06:25:02.017Z,36.45
2022-11-29T06:26:26.617Z,32.83
2022-11-29T06:27:44.855Z,34.92
2022-11-29T06:29:17.713Z,40.90
2022-11-29T06:30:38.987Z,36.25
2022-11-29T06:31:46.495Z,34.78
2022-11-29T06:32:58.558Z,40.03
2022-11-29T06:34:45.222Z,28.38
2022-11-29T06:36:16.174Z,30.88
2022-11-29T06:37:24.941Z,29.13
2022-11-29T06:38:30.685Z,27.95
2022-11-29T06:39:32.585Z,24.63
2022-11-29T06:40:34.461Z,28.20
2022-11-29T06:41:37.113Z,30.40
2022-11-29T06:42:38.874Z,26.25
2022-11-29T06:43:40.769Z,32.08
2022-11-29T06:44:42.983Z,30.30
2022-11-29T06:45:53.953Z,25.45
2022-11-29T06:47:10.684Z,23.80
2022-11-29T06:48:19.172Z,37.22
2022-11-29T06:49:37.523Z,27.83
2022-11-29T06:51:14.109Z,29.38
2022-11-29T06:52:23.037Z,31.33
2022-11-29T06:53:44.639Z,25.30
2022-11-29T06:54:58.280Z,27.75
2022-11-29T06:56:07.444Z,29.70
2022-11-29T06:57:17.935Z,30.90
2022-11-29T06:58:32.894Z,28.80
2022-11-29T06:59:49.929Z,24.52
2022-11-29T07:01:05.837Z,23.92
2022-11-29T07:02:15.997Z,31.08
2022-11-29T07:03:48.129Z,22.63
2022-11-29T07:05:21.122Z,26.20
2022-11-29T07:06:25.841Z,24.50
2022-11-29T07:07:27.700Z,24.15
2022-11-29T07:08:29.527Z,31.10
2022-11-29T07:09:34.539Z,25.08
2022-11-29T07:10:39.575Z,28.73
2022-11-29T07:11:42.148Z,26.15
2022-11-29T07:12:46.265Z,32.28
2022-11-29T07:13:48.109Z,30.73
2022-11-29T07:14:49.998Z,26.92
2022-11-29T07:16:16.041Z,23.55
2022-11-29T07:17:45.032Z,27.40
2022-11-29T07:19:25.326Z,25.48
2022-11-29T07:20:40.829Z,26.45
2022-11-29T07:21:58.146Z,27.83
2022-11-29T07:23:08.581Z,30.55
2022-11-29T07:25:00.340Z,29.20
2022-11-29T07:26:33.284Z,25.67
2022-11-29T07:27:46.331Z,28.60
2022-11-29T07:29:18.262Z,21.88
2022-11-29T07:30:27.718Z,23.90
2022-11-29T07:31:46.296Z,26.75
2022-11-29T07:33:15.408Z,26.08
2022-11-29T07:34:47.283Z,32.05
2022-11-29T07:36:21.916Z,28.30
2022-11-29T07:37:34.041Z,26.95
2022-11-29T07:38:56.069Z,28.10
2022-11-29T07:39:57.836Z,32.72
2022-11-29T07:41:04.915Z,36.60
2022-11-29T07:42:21.159Z,35.92
2022-11-29T07:43:26.150Z,25.67
2022-11-29T07:44:40.029Z,28.95
2022-11-29T07:45:41.682Z,40.25
2022-11-29T07:46:43.431Z,29.20
2022-11-29T07:47:46.173Z,29.60
2022-11-29T07:48:47.815Z,29.70
2022-11-29T07:49:49.399Z,33.25
2022-11-29T07:50:51.006Z,27.40
2022-11-29T07:51:54.678Z,25.55
2022-11-29T07:52:56.651Z,29.05
2022-11-29T07:53:58.307Z,27.85
2022-11-29T07:54:59.953Z,24.85
2022-11-29T07:56:01.500Z,29.90
2022-11-29T07:57:03.128Z,28.38
2022-11-29T07:58:04.706Z,30.58
2022-11-29T07:59:10.909Z,38.20
2022-11-29T08:00:13.868Z,29.85
2022-11-29T08:01:15.538Z,31.88
2022-11-29T08:02:27.404Z,28.45
2022-11-29T08:03:29.233Z,28.95
2022-11-29T08:04:30.918Z,29.17
2022-11-29T08:05:32.592Z,31.70
2022-11-29T08:06:35.068Z,31.52
2022-11-29T08:07:38.405Z,28.23
2022-11-29T08:08:44.015Z,31.83
2022-11-29T08:09:46.196Z,30.25
2022-11-29T08:10:48.707Z,31.10
2022-11-29T08:11:50.398Z,31.15
2022-11-29T08:12:52.886Z,27.13
2022-11-29T08:13:58.619Z,30.20
2022-11-29T08:15:00.274Z,28.70
2022-11-29T08:16:01.907Z,31.05
2022-11-29T08:17:03.972Z,28.35
2022-11-29T08:18:05.620Z,36.53
2022-11-29T08:19:07.264Z,31.00
2022-11-29T08:20:10.520Z,32.20
2022-11-29T08:21:17.808Z,29.75
2022-11-29T08:22:19.517Z,31.08
2022-11-29T08:23:21.403Z,30.83
2022-11-29T08:24:23.116Z,38.08
2022-11-29T08:25:25.933Z,26.27
2022-11-29T08:26:31.684Z,31.55
2022-11-29T08:27:34.440Z,26.92
2022-11-29T08:28:36.071Z,29.17
2022-11-29T08:29:37.710Z,32.63
2022-11-29T08:30:39.506Z,27.85
2022-11-29T08:31:41.582Z,36.17
2022-11-29T08:32:47.089Z,35.63
2022-11-29T08:33:51.565Z,39.17
2022-11-29T08:34:53.270Z,31.45
2022-11-29T08:35:54.997Z,32.90
2022-11-29T08:36:56.608Z,32.50
2022-11-29T08:37:58.346Z,28.75
2022-11-29T08:39:08.889Z,33.53
2022-11-29T08:40:11.863Z,28.17
2022-11-29T08:41:15.304Z,34.92
2022-11-29T08:42:16.880Z,33.78
2022-11-29T08:43:18.482Z,29.58
2022-11-29T08:44:20.141Z,40.47
2022-11-29T08:45:21.743Z,37.55
2022-11-29T08:46:43.619Z,31.90
2022-11-29T08:47:45.222Z,28.83
2022-11-29T08:48:47.849Z,31.65
2022-11-29T08:50:01.293Z,31.45
2022-11-29T08:51:04.128Z,28.23
2022-11-29T08:52:24.202Z,32.40
2022-11-29T08:53:45.966Z,31.40
2022-11-29T08:54:47.927Z,31.88
2022-11-29T08:55:50.427Z,33.63
2022-11-29T08:58:15.175Z,30.15
2022-11-29T08:59:16.723Z,35.92
2022-11-29T09:00:21.068Z,29.35
2022-11-29T09:01:23.002Z,37.65
2022-11-29T09:02:24.690Z,28.98
2022-11-29T09:03:44.882Z,27.55
2022-11-29T09:04:46.635Z,37.30
2022-11-29T09:05:48.605Z,36.42
2022-11-29T09:06:50.360Z,31.95
2022-11-29T09:07:51.970Z,34.50
2022-11-29T09:08:57.183Z,30.67
2022-11-29T09:09:58.924Z,31.98
2022-11-29T09:11:00.962Z,34.80
2022-11-29T09:12:02.996Z,32.67
2022-11-29T09:13:04.628Z,35.95
2022-11-29T09:14:08.010Z,35.25
2022-11-29T09:15:10.767Z,38.15
2022-11-29T09:16:14.973Z,38.78
2022-11-29T09:17:16.648Z,30.35
2022-11-29T09:18:18.237Z,37.65
2022-11-29T09:19:19.882Z,33.47
2022-11-29T09:20:21.661Z,34.83
2022-11-29T09:21:25.780Z,39.70
2022-11-29T09:22:27.424Z,41.28
2022-11-29T09:23:29.095Z,35.22
2022-11-29T09:24:30.883Z,37.60
2022-11-29T09:25:32.492Z,33.28
2022-11-29T09:26:36.212Z,33.50
2022-11-29T09:27:37.789Z,35.97
2022-11-29T09:28:39.440Z,33.75
2022-11-29T09:29:41.043Z,37.97
2022-11-29T09:30:42.619Z,38.75
2022-11-29T09:31:47.430Z,34.95
2022-11-29T09:32:49.161Z,35.80
2022-11-29T09:33:50.971Z,36.50
2022-11-29T09:34:52.569Z,33.45
2022-11-29T09:35:58.050Z,30.27
2022-11-29T09:36:59.916Z,33.00
2022-11-29T09:38:01.534Z,36.80
2022-11-29T09:39:03.304Z,29.77
2022-11-29T09:40:05.742Z,27.60
2022-11-29T09:41:19.241Z,30.63
2022-11-29T09:42:36.743Z,34.17
2022-11-29T09:44:12.073Z,32.22
2022-11-29T09:45:19.248Z,35.58
2022-11-29T09:46:41.990Z,33.63
2022-11-29T09:48:26.497Z,39.15
2022-11-29T09:49:48.956Z,39.13
2022-11-29T09:51:12.949Z,36.08
2022-11-29T09:52:36.059Z,31.45
2022-11-29T09:54:01.460Z,37.83
2022-11-29T09:55:22.947Z,37.85
2022-11-29T09:56:38.969Z,39.97
2022-11-29T09:57:43.910Z,44.00
2022-11-29T09:58:51.866Z,37.33
2022-11-29T09:59:58.701Z,39.13
2022-11-29T10:01:08.308Z,41.17
2022-11-29T10:02:23.367Z,40.63
2022-11-29T10:03:44.429Z,38.50
2022-11-29T10:04:52.132Z,39.80
2022-11-29T10:06:02.149Z,41.72
2022-11-29T10:07:14.350Z,39.67
2022-11-29T10:08:24.563Z,37.95
2022-11-29T10:09:40.964Z,40.83
2022-11-29T10:10:48.787Z,44.60
2022-11-29T10:12:11.792Z,43.35
2022-11-29T10:13:21.361Z,37.65
2022-11-29T10:14:29.633Z,38.38
2022-11-29T10:15:38.257Z,36.03
2022-11-29T10:16:58.003Z,37.05
2022-11-29T10:18:12.560Z,47.47
2022-11-29T10:19:40.909Z,41.25
2022-11-29T10:20:48.934Z,40.22
2022-11-29T10:22:24.414Z,40.22
2022-11-29T10:23:35.158Z,38.63
2022-11-29T10:24:38.951Z,34.20
2022-11-29T10:25:49.832Z,29.05
2022-11-29T10:26:51.437Z,37.08
2022-11-29T10:27:53.699Z,35.50
2022-11-29T10:28:57.552Z,37.03
2022-11-29T10:30:00.946Z,39.60
2022-11-29T10:31:29.253Z,33.78
2022-11-29T10:32:32.287Z,34.90
2022-11-29T10:33:36.950Z,33.50
2022-11-29T10:34:39.631Z,30.75
2022-11-29T10:35:41.378Z,32.67
2022-11-29T10:36:47.755Z,32.28
2022-11-29T10:38:28.590Z,37.42
2022-11-29T10:39:29.793Z,32.97
2022-11-29T10:40:34.879Z,40.40
2022-11-29T10:41:36.499Z,35.83
2022-11-29T10:42:53.091Z,35.83
2022-11-29T10:43:57.754Z,34.58
2022-11-29T10:45:00.211Z,33.35
2022-11-29T10:46:02.488Z,34.45
2022-11-29T10:47:10.444Z,40.25
2022-11-29T10:48:16.839Z,37.95
2022-11-29T10:49:23.206Z,42.10
2022-11-29T10:50:30.836Z,37.10
2022-11-29T10:51:34.725Z,49.92
2022-11-29T10:52:36.363Z,38.33
2022-11-29T10:53:38.521Z,38.63
2022-11-29T10:54:45.626Z,36.90
2022-11-29T10:56:00.004Z,40.40
2022-11-29T10:57:02.616Z,35.83
2022-11-29T10:58:28.318Z,33.53
2022-11-29T10:59:32.942Z,34.40
2022-11-29T11:01:06.598Z,34.70
2022-11-29T11:02:18.369Z,36.15
2022-11-29T11:03:29.226Z,36.63
2022-11-29T11:04:45.243Z,35.10
2022-11-29T11:06:03.838Z,31.63
2022-11-29T11:07:06.642Z,35.28
2022-11-29T11:08:17.417Z,34.00
2022-11-29T11:09:24.422Z,31.50
2022-11-29T11:10:29.313Z,33.28
2022-11-29T11:11:32.409Z,30.10
2022-11-29T11:12:34.845Z,34.70
2022-11-29T11:13:37.296Z,29.92
2022-11-29T11:14:39.203Z,33.15
2022-11-29T11:15:40.871Z,33.67
2022-11-29T11:16:43.032Z,28.25
2022-11-29T11:18:04.751Z,32.35
2022-11-29T11:19:34.133Z,22.23
2022-11-29T11:20:39.888Z,25.33
2022-11-29T11:21:41.543Z,25.45
2022-11-29T11:22:43.967Z,19.15
2022-11-29T11:23:54.440Z,19.85
2022-11-29T11:25:20.622Z,19.00
2022-11-29T11:26:23.683Z,26.20
2022-11-29T11:27:38.476Z,21.05
2022-11-29T11:29:02.069Z,24.52
2022-11-29T11:30:06.886Z,25.25
2022-11-29T11:31:10.823Z,22.38
2022-11-29T11:32:18.213Z,22.90
2022-11-29T11:33:25.012Z,19.08
2022-11-29T11:34:28.316Z,26.55
2022-11-29T11:35:29.992Z,21.65
2022-11-29T11:36:31.600Z,21.80
2022-11-29T11:37:35.614Z,25.48
2022-11-29T11:38:40.430Z,22.83
2022-11-29T11:39:43.481Z,25.50
2022-11-29T11:40:45.311Z,27.25
2022-11-29T11:42:06.230Z,24.92
2022-11-29T11:43:20.226Z,24.50
2022-11-29T11:44:50.315Z,25.10
2022-11-29T11:45:54.470Z,20.85
2022-11-29T11:46:56.509Z,22.45
2022-11-29T11:48:01.667Z,24.20
2022-11-29T11:49:12.832Z,23.88
2022-11-29T11:50:24.869Z,25.20
2022-11-29T11:51:26.967Z,22.10
2022-11-29T11:52:40.178Z,24.08
2022-11-29T11:53:49.656Z,22.65
2022-11-29T11:54:55.229Z,24.02
2022-11-29T11:55:59.422Z,25.80
2022-11-29T11:57:01.141Z,25.00
2022-11-29T11:58:09.828Z,24.30
2022-11-29T11:59:21.115Z,22.58
2022-11-29T12:01:02.329Z,21.20
2022-11-29T12:01:59.526Z,18.98
2022-11-29T12:03:01.367Z,22.92
2022-11-29T12:04:10.411Z,18.73
2022-11-29T12:05:16.936Z,19.85
2022-11-29T12:06:46.975Z,19.63
2022-11-29T12:08:10.578Z,21.60
2022-11-29T12:09:47.397Z,25.65
2022-11-29T12:10:52.381Z,19.70
2022-11-29T12:12:05.925Z,18.23
2022-11-29T12:13:18.207Z,17.92
2022-11-29T12:14:30.923Z,17.52
2022-11-29T12:15:38.382Z,18.27
2022-11-29T12:16:41.597Z,18.70
2022-11-29T12:18:08.620Z,17.75
2022-11-29T12:19:23.445Z,18.40
2022-11-29T12:20:30.326Z,15.77
2022-11-29T12:21:41.184Z,17.13
2022-11-29T12:22:56.432Z,17.85
2022-11-29T12:24:15.724Z,18.02
2022-11-29T12:25:23.309Z,17.85
2022-11-29T12:26:58.637Z,18.75
2022-11-29T12:28:00.548Z,18.73
2022-11-29T12:29:02.347Z,17.58
2022-11-29T12:30:12.108Z,16.88
2022-11-29T12:31:39.423Z,17.05
2022-11-29T12:32:53.726Z,19.08
2022-11-29T12:34:33.086Z,20.02
2022-11-29T12:35:56.477Z,16.77
2022-11-29T12:37:27.188Z,16.77
2022-11-29T12:38:57.926Z,18.58
2022-11-29T12:40:21.706Z,19.23
2022-11-29T12:41:29.020Z,21.65
2022-11-29T12:42:39.643Z,18.63
2022-11-29T12:44:10.160Z,20.17
2022-11-29T12:45:15.168Z,15.20
2022-11-29T12:46:29.770Z,16.95
2022-11-29T12:48:13.543Z,18.70
2022-11-29T12:49:22.529Z,19.05
2022-11-29T12:50:48.272Z,19.20
2022-11-29T12:51:58.907Z,18.75
2022-11-29T12:53:14.088Z,20.25
2022-11-29T12:54:15.954Z,18.23
2022-11-29T12:55:55.713Z,18.50
2022-11-29T12:57:00.232Z,18.80
2022-11-29T12:58:23.833Z,19.08
2022-11-29T12:59:50.482Z,15.32
2022-11-29T13:01:12.381Z,19.85
2022-11-29T13:02:22.899Z,15.73
2022-11-29T13:03:35.393Z,17.05
2022-11-29T13:04:56.491Z,14.68
2022-11-29T13:06:16.062Z,17.30
2022-11-29T13:07:45.440Z,17.80
2022-11-29T13:08:49.909Z,16.98
2022-11-29T13:10:27.632Z,16.27
2022-11-29T13:11:33.757Z,17.85
2022-11-29T13:12:46.096Z,19.23
2022-11-29T13:14:34.269Z,24.35
2022-11-29T13:15:46.397Z,18.05
2022-11-29T13:17:03.034Z,18.77
2022-11-29T13:18:07.398Z,24.70
2022-11-29T13:19:30.551Z,20.48
2022-11-29T13:20:50.254Z,21.20
2022-11-29T13:22:15.075Z,21.95
2022-11-29T13:24:07.259Z,19.75
2022-11-29T13:25:12.998Z,21.23
2022-11-29T13:26:16.205Z,21.85
2022-11-29T13:27:31.742Z,20.85
2022-11-29T13:28:37.094Z,19.98
2022-11-29T13:29:38.690Z,22.50
2022-11-29T13:30:40.523Z,21.60
2022-11-29T13:31:43.675Z,22.58
2022-11-29T13:32:59.931Z,21.60
2022-11-29T13:34:01.468Z,22.13
2022-11-29T13:35:14.807Z,21.55
2022-11-29T13:36:40.105Z,21.60
2022-11-29T13:37:54.974Z,23.67
2022-11-29T13:39:17.884Z,21.88
2022-11-29T13:40:37.236Z,22.10
2022-11-29T13:42:04.621Z,23.20
2022-11-29T13:43:41.963Z,25.15
2022-11-29T13:44:46.485Z,27.05
2022-11-29T13:46:15.210Z,27.15
2022-11-29T13:47:18.788Z,25.10
2022-11-29T13:48:35.296Z,24.63
2022-11-29T13:49:53.483Z,23.50
2022-11-29T13:50:56.673Z,26.80
2022-11-29T13:52:06.176Z,24.92
2022-11-29T13:53:23.577Z,32.08
2022-11-29T13:54:34.501Z,38.88
2022-11-29T13:55:45.077Z,30.17
2022-11-29T13:56:46.758Z,26.67
2022-11-29T13:58:17.382Z,32.00
2022-11-29T13:59:26.179Z,29.40
2022-11-29T14:00:33.925Z,27.95
2022-11-29T14:01:51.525Z,26.88
2022-11-29T14:02:57.824Z,30.58
2022-11-29T14:04:16.176Z,28.98
2022-11-29T14:05:26.397Z,25.70
2022-11-29T14:06:38.812Z,33.80
2022-11-29T14:08:19.183Z,26.77
2022-11-29T14:09:28.294Z,32.53
2022-11-29T14:10:30.627Z,30.67
2022-11-29T14:11:43.393Z,32.40
2022-11-29T14:12:55.358Z,27.67
2022-11-29T14:14:05.002Z,30.77
2022-11-29T14:15:18.445Z,30.83
2022-11-29T14:16:36.472Z,26.58
2022-11-29T14:18:03.610Z,28.55
2022-11-29T14:19:08.244Z,26.38
2022-11-29T14:20:30.574Z,35.60
2022-11-29T14:22:01.781Z,25.98
2022-11-29T14:23:06.550Z,27.20
2022-11-29T14:24:33.143Z,27.90
2022-11-29T14:25:56.569Z,24.80
2022-11-29T14:27:10.111Z,25.52
2022-11-29T14:28:14.447Z,26.30
2022-11-29T14:29:44.673Z,27.88
2022-11-29T14:30:51.313Z,28.75
2022-11-29T14:31:54.940Z,23.83
2022-11-29T14:33:44.472Z,23.27
2022-11-29T14:34:52.380Z,26.40
2022-11-29T14:36:26.248Z,30.70
2022-11-29T14:37:32.972Z,25.75
2022-11-29T14:38:53.017Z,29.45
2022-11-29T14:39:57.358Z,26.63
2022-11-29T14:41:37.259Z,29.00
2022-11-29T14:42:47.480Z,25.10
2022-11-29T14:43:49.344Z,25.02
2022-11-29T14:44:54.249Z,25.30
2022-11-29T14:46:14.461Z,28.17
2022-11-29T14:47:24.715Z,25.10
2022-11-29T14:48:29.932Z,23.33
2022-11-29T14:50:10.944Z,25.08
2022-11-29T14:51:23.247Z,25.15
2022-11-29T14:52:32.319Z,23.65
2022-11-29T14:53:36.196Z,24.42
2022-11-29T14:55:05.253Z,27.13
2022-11-29T14:56:31.719Z,26.75
2022-11-29T14:57:51.231Z,25.85
2022-11-29T14:59:29.662Z,24.00
2022-11-29T15:00:49.144Z,29.67
2022-11-29T15:01:51.271Z,26.20
2022-11-29T15:03:30.305Z,30.95
2022-11-29T15:04:36.482Z,30.67
2022-11-29T15:05:47.843Z,30.67
2022-11-29T15:06:53.130Z,29.38
2022-11-29T15:08:27.021Z,26.30
2022-11-29T15:09:29.988Z,25.73
2022-11-29T15:10:35.904Z,29.10
2022-11-29T15:11:57.616Z,27.60
2022-11-29T15:13:00.612Z,24.88
2022-11-29T15:14:13.146Z,27.83
2022-11-29T15:15:20.472Z,27.90
2022-11-29T15:16:27.375Z,31.95
2022-11-29T15:17:53.275Z,34.58
2022-11-29T15:19:36.619Z,33.92
2022-11-29T15:20:56.623Z,30.35
2022-11-29T15:22:07.340Z,30.35
2022-11-29T15:23:16.485Z,30.65
2022-11-29T15:24:19.689Z,30.20
2022-11-29T15:25:26.387Z,32.70
2022-11-29T15:26:28.295Z,33.03
2022-11-29T15:27:30.005Z,43.60
2022-11-29T15:28:31.653Z,32.75
2022-11-29T15:29:33.272Z,34.97
2022-11-29T15:30:38.386Z,45.63
2022-11-29T15:31:42.340Z,32.22
2022-11-29T15:32:44.096Z,36.00
2022-11-29T15:33:48.555Z,36.67
2022-11-29T15:34:53.212Z,37.25
2022-11-29T15:36:02.695Z,38.35
2022-11-29T15:37:04.724Z,35.45
2022-11-29T15:38:06.448Z,34.25
2022-11-29T15:39:28.147Z,40.92
2022-11-29T15:40:35.261Z,35.72
2022-11-29T15:41:36.986Z,35.00
2022-11-29T15:42:50.624Z,34.40
2022-11-29T15:44:01.638Z,34.38